Greentown, Ohio
Current Conditions -  °F | °C
As of 7:49 AM on Thursday 27 Nov 2014 (Local Time) from KCAK Reporting Station
Light Snow Light Snow  
Wind Chill: 27°   Ceiling: 300
Heat Index: 32°   Visibility: 1.5mi
Dew Point: 29°   Wind: 5mph
Humidity: 88%   Direction: 290°WNW
Pressure: 30.05"   Gusts: NA
Location:  40.93°N, 81.4°W
Report Text: KCAK 271249Z 29004KT 1 1/2SM -SN BR BKN003 OVC024 00/M02 A3005 RMK AO2 SLP187 VIS 1V2 P0001 T00001017
Loading
Personal Weather Stations






























Interactive Weather Map New forecast layout! Learn more

10-Day Weather Forecast

Advertisements
Track Severe Weather on mobile